createdAt,value
2022-09-04T00:02:50.293Z,100031.78
2022-09-04T00:05:36.595Z,100023.94
2022-09-04T00:08:50.758Z,100016.44
2022-09-04T00:11:53.712Z,100021.56
2022-09-04T00:14:52.646Z,100026.91
2022-09-04T00:18:07.301Z,100025.69
2022-09-04T00:21:21.617Z,100027.97
2022-09-04T00:24:15.646Z,100037.31
2022-09-04T00:27:18.256Z,100029.16
2022-09-04T00:30:08.375Z,100032.72
2022-09-04T00:33:08.424Z,100031.00
2022-09-04T00:35:58.858Z,100037.56
2022-09-04T00:38:48.899Z,100037.09
2022-09-04T00:41:41.117Z,100046.56
2022-09-04T00:44:47.582Z,100039.50
2022-09-04T00:47:42.177Z,100040.56
2022-09-04T00:50:41.071Z,100036.72
2022-09-04T00:54:02.068Z,100041.81
2022-09-04T00:57:16.850Z,100040.44
2022-09-04T01:00:16.599Z,100038.38
2022-09-04T01:03:33.427Z,100030.06
2022-09-04T01:06:42.101Z,100029.59
2022-09-04T01:09:44.177Z,100038.00
2022-09-04T01:12:50.194Z,100041.38
2022-09-04T01:15:43.645Z,100049.00
2022-09-04T01:18:48.276Z,100051.03
2022-09-04T01:21:59.787Z,100050.34
2022-09-04T01:24:54.095Z,100058.91
2022-09-04T01:27:55.554Z,100063.47
2022-09-04T01:30:52.340Z,100063.41
2022-09-04T01:33:48.296Z,100062.84
2022-09-04T01:36:58.501Z,100072.09
2022-09-04T01:40:03.396Z,100068.94
2022-09-04T01:43:23.317Z,100066.88
2022-09-04T01:46:58.363Z,100072.72
2022-09-04T01:49:56.440Z,100071.84
2022-09-04T01:53:20.240Z,100078.28
2022-09-04T01:56:15.582Z,100068.91
2022-09-04T01:59:36.180Z,100078.03
2022-09-04T02:02:41.519Z,100073.69
2022-09-04T02:05:50.138Z,100071.13
2022-09-04T02:08:55.267Z,100076.19
2022-09-04T02:11:56.859Z,100070.34
2022-09-04T02:14:46.261Z,100073.19
2022-09-04T02:17:56.309Z,100074.31
2022-09-04T02:21:10.990Z,100071.34
2022-09-04T02:24:02.598Z,100068.59
2022-09-04T02:27:16.183Z,100071.34
2022-09-04T02:30:10.239Z,100069.75
2022-09-04T02:32:59.583Z,100074.81
2022-09-04T02:35:57.808Z,100081.50
2022-09-04T02:39:06.350Z,100085.78
2022-09-04T02:42:22.769Z,100080.19
2022-09-04T02:45:43.116Z,100073.00
2022-09-04T02:48:40.377Z,100080.56
2022-09-04T02:51:45.617Z,100066.94
2022-09-04T02:54:54.037Z,100075.53
2022-09-04T02:57:55.106Z,100083.12
2022-09-04T03:00:55.872Z,100075.59
2022-09-04T03:03:50.384Z,100085.78
2022-09-04T03:06:58.476Z,100086.62
2022-09-04T03:09:45.675Z,100083.38
2022-09-04T03:12:45.989Z,100074.81
2022-09-04T03:15:45.816Z,100075.88
2022-09-04T03:19:02.372Z,100076.16
2022-09-04T03:22:04.487Z,100073.78
2022-09-04T03:25:32.712Z,100082.34
2022-09-04T03:28:34.751Z,100080.50
2022-09-04T03:31:27.041Z,100090.84
2022-09-04T03:34:38.789Z,100092.81
2022-09-04T03:37:40.742Z,100097.25
2022-09-04T03:40:29.780Z,100095.38
2022-09-04T03:43:42.203Z,100093.06
2022-09-04T03:46:42.927Z,100104.25
2022-09-04T03:49:49.756Z,100096.28
2022-09-04T03:53:00.952Z,100095.97
2022-09-04T03:56:06.948Z,100102.75
2022-09-04T03:59:05.619Z,100104.03
2022-09-04T04:02:02.265Z,100101.19
2022-09-04T04:05:01.734Z,100103.69
2022-09-04T04:08:20.914Z,100107.72
2022-09-04T04:11:19.734Z,100116.06
2022-09-04T04:14:22.859Z,100121.94
2022-09-04T04:17:24.366Z,100121.50
2022-09-04T04:20:38.237Z,100133.25
2022-09-04T04:23:57.674Z,100137.97
2022-09-04T04:26:43.846Z,100149.81
2022-09-04T04:29:40.753Z,100146.63
2022-09-04T04:32:48.522Z,100155.19
2022-09-04T04:36:17.676Z,100156.66
2022-09-04T04:39:14.733Z,100172.66
2022-09-04T04:42:21.171Z,100163.72
2022-09-04T04:45:38.173Z,100162.09
2022-09-04T04:49:04.299Z,100169.97
2022-09-04T04:52:21.558Z,100172.50
2022-09-04T04:55:18.193Z,100168.81
2022-09-04T04:58:11.478Z,100173.09
2022-09-04T05:01:13.131Z,100188.47
2022-09-04T05:04:17.866Z,100192.87
2022-09-04T05:07:12.812Z,100186.41
2022-09-04T05:10:22.530Z,100182.19
2022-09-04T05:13:20.809Z,100179.44
2022-09-04T05:16:19.099Z,100190.06
2022-09-04T05:19:29.208Z,100190.66
2022-09-04T05:22:52.966Z,100189.63
2022-09-04T05:25:41.086Z,100192.84
2022-09-04T05:28:38.800Z,100182.91
2022-09-04T05:31:32.637Z,100199.19
2022-09-04T05:34:51.731Z,100202.25
2022-09-04T05:37:58.011Z,100199.34
2022-09-04T05:41:05.670Z,100202.91
2022-09-04T05:44:20.299Z,100207.88
2022-09-04T05:47:45.248Z,100220.25
2022-09-04T05:51:05.802Z,100218.03
2022-09-04T05:54:07.114Z,100222.41
2022-09-04T05:57:05.318Z,100221.03
2022-09-04T06:00:05.753Z,100222.06
2022-09-04T06:03:16.957Z,100219.44
2022-09-04T06:06:15.902Z,100216.34
2022-09-04T06:09:39.784Z,100211.03
2022-09-04T06:12:41.979Z,100216.25
2022-09-04T06:15:32.147Z,100224.44
2022-09-04T06:18:28.772Z,100219.59
2022-09-04T06:21:23.941Z,100215.88
2022-09-04T06:24:26.124Z,100225.16
2022-09-04T06:27:33.823Z,100227.09
2022-09-04T06:30:22.130Z,100224.25
2022-09-04T06:33:20.982Z,100229.78
2022-09-04T06:36:30.713Z,100235.56
2022-09-04T06:39:30.752Z,100228.19
2022-09-04T06:42:48.642Z,100233.72
2022-09-04T06:46:13.259Z,100230.66
2022-09-04T06:49:15.777Z,100243.56
2022-09-04T06:52:26.225Z,100251.41
2022-09-04T06:55:29.166Z,100247.31
2022-09-04T06:58:41.060Z,100261.13
2022-09-04T07:01:52.793Z,100255.91
2022-09-04T07:05:04.434Z,100254.50
2022-09-04T07:08:02.937Z,100258.09
2022-09-04T07:11:03.901Z,100256.25
2022-09-04T07:13:50.435Z,100255.53
2022-09-04T07:16:49.265Z,100258.22
2022-09-04T07:19:41.880Z,100258.25
2022-09-04T07:22:35.361Z,100264.31
2022-09-04T07:25:23.424Z,100263.87
2022-09-04T07:28:36.528Z,100266.94
2022-09-04T07:31:35.196Z,100267.19
2022-09-04T07:34:43.397Z,100263.56
2022-09-04T07:37:43.959Z,100271.31
2022-09-04T07:40:38.288Z,100279.19
2022-09-04T07:43:33.746Z,100273.91
2022-09-04T07:46:40.285Z,100273.84
2022-09-04T07:49:36.069Z,100275.78
2022-09-04T07:52:43.776Z,100279.84
2022-09-04T07:55:37.766Z,100282.53
2022-09-04T07:58:45.694Z,100284.03
2022-09-04T08:02:06.762Z,100283.91
2022-09-04T08:04:59.435Z,100286.62
2022-09-04T08:08:13.592Z,100295.31
2022-09-04T08:11:09.758Z,100306.50
2022-09-04T08:14:04.731Z,100309.97
2022-09-04T08:17:25.257Z,100315.16
2022-09-04T08:20:20.538Z,100323.75
2022-09-04T08:23:38.084Z,100325.34
2022-09-04T08:26:49.233Z,100317.94
2022-09-04T08:29:45.590Z,100320.44
2022-09-04T08:33:05.820Z,100319.91
2022-09-04T08:35:57.401Z,100319.97
2022-09-04T08:39:06.627Z,100325.84
2022-09-04T08:41:59.152Z,100316.22
2022-09-04T08:45:06.802Z,100310.66
2022-09-04T08:48:08.076Z,100319.88
2022-09-04T08:51:15.488Z,100325.56
2022-09-04T08:54:26.134Z,100326.47
2022-09-04T08:57:25.421Z,100328.91
2022-09-04T09:00:42.477Z,100331.75
2022-09-04T09:03:35.251Z,100316.34
2022-09-04T09:06:34.695Z,100317.25
2022-09-04T09:09:58.605Z,100322.97
2022-09-04T09:13:06.657Z,100323.84
2022-09-04T09:16:17.975Z,100328.53
2022-09-04T09:19:39.279Z,100330.22
2022-09-04T09:23:10.119Z,100323.88
2022-09-04T09:26:04.575Z,100325.22
2022-09-04T09:29:39.274Z,100333.62
2022-09-04T09:32:54.142Z,100335.41
2022-09-04T09:35:43.238Z,100338.28
2022-09-04T09:38:29.754Z,100339.66
2022-09-04T09:41:46.496Z,100338.87
2022-09-04T09:44:43.224Z,100334.03
2022-09-04T09:48:10.961Z,100335.31
2022-09-04T09:51:40.627Z,100334.91
2022-09-04T09:54:41.843Z,100335.97
2022-09-04T09:57:40.433Z,100332.72
2022-09-04T10:00:36.710Z,100334.81
2022-09-04T10:03:41.977Z,100334.31
2022-09-04T10:07:10.725Z,100332.72
2022-09-04T10:10:24.868Z,100338.00
2022-09-04T10:13:15.573Z,100344.28
2022-09-04T10:16:40.005Z,100344.72
2022-09-04T10:20:03.695Z,100341.66
2022-09-04T10:23:05.515Z,100337.03
2022-09-04T10:26:00.753Z,100338.63
2022-09-04T10:29:11.281Z,100341.22
2022-09-04T10:32:12.395Z,100338.53
2022-09-04T10:35:18.370Z,100327.63
2022-09-04T10:38:10.411Z,100333.19
2022-09-04T10:41:14.945Z,100335.31
2022-09-04T10:44:23.246Z,100346.72
2022-09-04T10:47:28.924Z,100344.12
2022-09-04T10:50:24.561Z,100339.81
2022-09-04T10:53:22.467Z,100346.25
2022-09-04T10:56:30.839Z,100345.34
2022-09-04T10:59:59.322Z,100345.09
2022-09-04T11:02:52.397Z,100352.53
2022-09-04T11:06:00.229Z,100356.28
2022-09-04T11:09:11.010Z,100349.44
2022-09-04T11:12:09.413Z,100360.56
2022-09-04T11:15:04.874Z,100353.09
2022-09-04T11:17:57.762Z,100355.31
2022-09-04T11:21:03.012Z,100352.72
2022-09-04T11:24:27.457Z,100354.06
2022-09-04T11:27:52.125Z,100353.47
2022-09-04T11:30:57.147Z,100350.75
2022-09-04T11:34:04.871Z,100349.94
2022-09-04T11:37:25.376Z,100359.22
2022-09-04T11:40:16.468Z,100357.91
2022-09-04T11:43:05.870Z,100353.38
2022-09-04T11:46:35.718Z,100350.81
2022-09-04T11:50:14.561Z,100340.12
2022-09-04T11:53:28.739Z,100334.41
2022-09-04T11:56:34.868Z,100335.75
2022-09-04T11:59:39.306Z,100330.75
2022-09-04T12:02:28.911Z,100327.16
2022-09-04T12:05:39.172Z,100318.84
2022-09-04T12:08:54.449Z,100311.94
2022-09-04T12:11:41.135Z,100310.00
2022-09-04T12:14:50.785Z,100311.19
2022-09-04T12:17:47.573Z,100313.03
2022-09-04T12:20:48.934Z,100315.72
2022-09-04T12:23:56.773Z,100304.50
2022-09-04T12:26:53.634Z,100306.03
2022-09-04T12:30:16.059Z,100311.31
2022-09-04T12:33:50.352Z,100315.72
2022-09-04T12:36:45.243Z,100311.53
2022-09-04T12:39:43.053Z,100311.03
2022-09-04T12:42:37.986Z,100309.03
2022-09-04T12:45:43.290Z,100304.75
2022-09-04T12:48:56.290Z,100303.44
2022-09-04T12:51:51.838Z,100301.25
2022-09-04T12:54:55.674Z,100304.47
2022-09-04T12:58:10.206Z,100303.84
2022-09-04T13:01:32.143Z,100291.69
2022-09-04T13:04:27.513Z,100304.81
2022-09-04T13:07:41.668Z,100297.09
2022-09-04T13:10:34.081Z,100289.38
2022-09-04T13:13:25.218Z,100285.47
2022-09-04T13:16:54.488Z,100276.75
2022-09-04T13:20:12.499Z,100274.41
2022-09-04T13:23:21.134Z,100273.56
2022-09-04T13:26:29.822Z,100265.47
2022-09-04T13:29:46.889Z,100270.78
2022-09-04T13:33:17.661Z,100264.78
2022-09-04T13:36:20.000Z,100274.37
2022-09-04T13:39:20.046Z,100271.97
2022-09-04T13:42:08.790Z,100273.19
2022-09-04T13:45:05.614Z,100263.13
2022-09-04T13:48:01.181Z,100264.91
2022-09-04T13:50:56.237Z,100261.03
2022-09-04T13:53:58.883Z,100262.22
2022-09-04T13:56:51.266Z,100266.56
2022-09-04T13:59:38.369Z,100266.69
2022-09-04T14:02:26.942Z,100264.50
2022-09-04T14:05:18.697Z,100268.03
2022-09-04T14:08:08.778Z,100257.03
2022-09-04T14:11:22.301Z,100256.03
2022-09-04T14:14:23.872Z,100250.50
2022-09-04T14:17:12.614Z,100248.62
2022-09-04T14:20:08.779Z,100249.53
2022-09-04T14:23:15.963Z,100252.12
2022-09-04T14:26:17.104Z,100252.97
2022-09-04T14:29:26.869Z,100256.94
2022-09-04T14:32:35.107Z,100256.19
2022-09-04T14:35:30.533Z,100253.25
2022-09-04T14:38:51.772Z,100254.06
2022-09-04T14:41:54.449Z,100257.00
2022-09-04T14:45:16.362Z,100260.87
2022-09-04T14:48:07.659Z,100260.47
2022-09-04T14:50:56.502Z,100262.62
2022-09-04T14:54:02.163Z,100264.63
2022-09-04T14:56:55.624Z,100265.91
2022-09-04T14:59:46.506Z,100263.34
2022-09-04T15:02:36.022Z,100272.78
2022-09-04T15:05:51.567Z,100266.03
2022-09-04T15:08:41.036Z,100270.13
2022-09-04T15:11:32.912Z,100274.56
2022-09-04T15:14:28.471Z,100273.59
2022-09-04T15:17:26.312Z,100274.09
2022-09-04T15:20:20.351Z,100279.03
2022-09-04T15:23:12.407Z,100276.50
2022-09-04T15:26:02.101Z,100267.75
2022-09-04T15:29:08.433Z,100276.50
2022-09-04T15:32:03.403Z,100274.28
2022-09-04T15:35:07.449Z,100281.44
2022-09-04T15:38:21.560Z,100283.16
2022-09-04T15:41:27.833Z,100282.69
2022-09-04T15:44:26.622Z,100294.16
2022-09-04T15:47:38.227Z,100286.00
2022-09-04T15:50:32.627Z,100286.28
2022-09-04T15:53:27.330Z,100283.75
2022-09-04T15:56:16.409Z,100286.00
2022-09-04T15:59:14.627Z,100289.94
2022-09-04T16:02:13.037Z,100290.03
2022-09-04T16:05:19.506Z,100298.06
2022-09-04T16:08:25.893Z,100298.88
2022-09-04T16:11:27.482Z,100295.53
2022-09-04T16:14:26.456Z,100289.88
2022-09-04T16:17:21.260Z,100289.81
2022-09-04T16:20:24.316Z,100282.16
2022-09-04T16:23:14.737Z,100281.09
2022-09-04T16:26:11.019Z,100276.19
2022-09-04T16:29:03.987Z,100279.66
2022-09-04T16:31:55.588Z,100275.00
2022-09-04T16:35:05.713Z,100273.59
2022-09-04T16:37:56.883Z,100285.63
2022-09-04T16:40:49.912Z,100286.81
2022-09-04T16:43:36.365Z,100286.31
2022-09-04T16:46:29.595Z,100290.28
2022-09-04T16:49:21.989Z,100287.13
2022-09-04T16:52:21.992Z,100280.19
2022-09-04T16:55:25.062Z,100289.44
2022-09-04T16:58:11.548Z,100285.84
2022-09-04T17:01:13.987Z,100290.44
2022-09-04T17:04:20.527Z,100287.59
2022-09-04T17:07:24.701Z,100296.84
2022-09-04T17:10:36.696Z,100287.97
2022-09-04T17:13:52.277Z,100292.13
2022-09-04T17:17:09.276Z,100288.22
2022-09-04T17:20:19.442Z,100302.72
2022-09-04T17:28:57.615Z,100305.84
2022-09-04T17:29:19.381Z,100314.44
2022-09-04T17:29:46.968Z,100312.34
2022-09-04T17:35:36.813Z,100317.63
2022-09-04T17:40:48.267Z,100324.56
2022-09-04T17:40:54.446Z,100330.72
2022-09-04T17:43:11.181Z,100332.00
2022-09-04T17:46:11.588Z,100339.72
2022-09-04T17:48:59.075Z,100341.97
2022-09-04T17:51:57.691Z,100343.84
2022-09-04T17:54:49.076Z,100355.03
2022-09-04T17:57:57.601Z,100362.50
2022-09-04T18:01:14.090Z,100365.69
2022-09-04T18:04:38.896Z,100371.41
2022-09-04T18:08:10.016Z,100372.59
2022-09-04T18:10:46.105Z,100379.59
2022-09-04T18:13:53.382Z,100389.44
2022-09-04T18:17:12.203Z,100391.44
2022-09-04T18:20:27.324Z,100391.88
2022-09-04T18:23:28.034Z,100397.03
2022-09-04T18:26:40.094Z,100405.88
2022-09-04T18:31:48.264Z,100411.28
2022-09-04T18:37:16.430Z,100412.81
2022-09-04T18:37:24.932Z,100404.28
2022-09-04T18:39:34.767Z,100417.41
2022-09-04T18:50:23.593Z,100426.47
2022-09-04T18:50:35.117Z,100424.06
2022-09-04T18:50:35.454Z,100425.91
2022-09-04T18:52:25.348Z,100431.31
2022-09-04T18:55:23.080Z,100432.06
2022-09-04T18:58:12.106Z,100429.53
2022-09-04T19:01:28.518Z,100436.22
2022-09-04T19:04:36.335Z,100446.72
2022-09-04T19:07:34.860Z,100442.69
2022-09-04T19:10:27.191Z,100451.56
2022-09-04T19:13:25.349Z,100449.28
2022-09-04T19:16:20.235Z,100442.59
2022-09-04T19:19:28.684Z,100458.75
2022-09-04T19:22:28.371Z,100460.84
2022-09-04T19:25:15.261Z,100456.34
2022-09-04T19:28:23.700Z,100461.31
2022-09-04T19:31:17.634Z,100460.56
2022-09-04T19:34:17.583Z,100455.44
2022-09-04T19:38:49.554Z,100463.50
2022-09-04T19:46:11.145Z,100460.03
2022-09-04T19:46:14.248Z,100458.34
2022-09-04T19:47:40.833Z,100457.78
2022-09-04T19:53:24.292Z,100458.38
2022-09-04T19:53:53.877Z,100472.56
2022-09-04T19:57:31.471Z,100470.13
2022-09-04T20:00:43.113Z,100459.59
2022-09-04T20:03:34.258Z,100465.75
2022-09-04T20:06:51.249Z,100462.88
2022-09-04T20:09:48.397Z,100461.81
2022-09-04T20:12:37.063Z,100464.09
2022-09-04T20:15:31.628Z,100460.25
2022-09-04T20:18:20.970Z,100471.47
2022-09-04T20:21:18.027Z,100460.09
2022-09-04T20:24:07.653Z,100464.56
2022-09-04T20:27:15.713Z,100461.31
2022-09-04T20:30:12.174Z,100463.94
2022-09-04T20:33:16.656Z,100468.25
2022-09-04T20:36:10.168Z,100465.28
2022-09-04T20:39:48.452Z,100463.75
2022-09-04T20:42:39.891Z,100464.94
2022-09-04T20:49:35.317Z,100464.41
2022-09-04T20:52:49.296Z,100464.03
2022-09-04T20:52:50.485Z,100463.75
2022-09-04T20:55:54.795Z,100464.50
2022-09-04T21:03:12.660Z,100461.53
2022-09-04T21:03:23.238Z,100457.41
2022-09-04T21:06:04.267Z,100456.03
2022-09-04T21:09:13.239Z,100459.75
2022-09-04T21:12:17.161Z,100458.44
2022-09-04T21:15:08.432Z,100454.91
2022-09-04T21:18:07.010Z,100460.72
2022-09-04T21:21:20.319Z,100462.44
2022-09-04T21:24:20.826Z,100466.91
2022-09-04T21:27:18.065Z,100468.00
2022-09-04T21:30:08.512Z,100467.87
2022-09-04T21:33:26.831Z,100474.44
2022-09-04T21:36:26.879Z,100476.59
2022-09-04T21:39:25.725Z,100479.38
2022-09-04T21:42:24.670Z,100479.78
2022-09-04T21:45:43.295Z,100482.34
2022-09-04T21:48:44.632Z,100484.19
2022-09-04T21:51:41.737Z,100480.66
2022-09-04T21:56:59.998Z,100483.69
2022-09-04T22:02:35.109Z,100493.47
2022-09-04T22:02:39.910Z,100489.25
2022-09-04T22:05:18.488Z,100489.78
2022-09-04T22:13:26.390Z,100489.06
2022-09-04T22:13:28.961Z,100490.28
2022-09-04T22:14:54.703Z,100491.37
2022-09-04T22:18:04.483Z,100489.97
2022-09-04T22:21:16.298Z,100480.84
2022-09-04T22:24:21.170Z,100485.22
2022-09-04T22:27:22.328Z,100488.16
2022-09-04T22:30:11.786Z,100492.78
2022-09-04T22:33:10.096Z,100493.03
2022-09-04T22:36:30.367Z,100496.84
2022-09-04T22:39:31.564Z,100496.00
2022-09-04T22:42:36.772Z,100493.72
2022-09-04T22:45:43.178Z,100489.28
2022-09-04T22:49:12.548Z,100491.63
2022-09-04T22:52:14.316Z,100498.37
2022-09-04T22:55:23.156Z,100490.53
2022-09-04T22:58:30.302Z,100496.78
2022-09-04T23:01:36.782Z,100502.91
2022-09-04T23:04:45.501Z,100505.44
2022-09-04T23:13:42.345Z,100502.53
2022-09-04T23:13:57.220Z,100495.06
2022-09-04T23:14:18.904Z,100504.13
2022-09-04T23:17:24.603Z,100501.03
2022-09-04T23:26:31.013Z,100497.34
2022-09-04T23:26:43.219Z,100495.38
2022-09-04T23:27:07.475Z,100497.72
2022-09-04T23:30:25.029Z,100498.22
2022-09-04T23:33:39.136Z,100499.06
2022-09-04T23:36:46.524Z,100501.66
2022-09-04T23:40:26.695Z,100497.06
2022-09-04T23:43:42.380Z,100497.94
2022-09-04T23:46:44.992Z,100497.59
2022-09-04T23:49:42.444Z,100497.34
2022-09-04T23:53:20.270Z,100497.87
2022-09-04T23:56:35.793Z,100495.38
2022-09-04T23:59:50.572Z,100493.00
